createdAt,value
2023-02-21T00:00:02.692Z,7.66
2023-02-21T00:03:06.717Z,7.68
2023-02-21T00:06:10.440Z,7.57
2023-02-21T00:09:14.406Z,7.72
2023-02-21T00:12:18.232Z,7.69
2023-02-21T00:15:21.981Z,7.67
2023-02-21T00:18:25.941Z,7.74
2023-02-21T00:21:29.951Z,7.72
2023-02-21T00:24:36.472Z,7.68
2023-02-21T00:27:40.908Z,7.63
2023-02-21T00:30:44.883Z,7.70
2023-02-21T00:33:48.608Z,7.61
2023-02-21T00:36:52.613Z,7.69
2023-02-21T00:39:56.555Z,7.53
2023-02-21T00:43:00.490Z,7.66
2023-02-21T00:46:04.669Z,7.74
2023-02-21T00:49:08.436Z,7.77
2023-02-21T00:52:13.286Z,7.76
2023-02-21T00:55:17.342Z,7.64
2023-02-21T00:58:21.170Z,7.70
2023-02-21T01:01:25.331Z,7.72
2023-02-21T01:04:29.106Z,7.66
2023-02-21T01:07:33.092Z,7.79
2023-02-21T01:10:36.949Z,7.83
2023-02-21T01:13:40.988Z,7.86
2023-02-21T01:16:48.187Z,7.85
2023-02-21T01:19:52.189Z,7.73
2023-02-21T01:22:56.053Z,7.81
2023-02-21T01:25:59.926Z,7.86
2023-02-21T01:29:06.361Z,7.87
2023-02-21T01:32:10.525Z,7.90
2023-02-21T01:35:14.244Z,7.91
2023-02-21T01:38:18.345Z,7.74
2023-02-21T01:41:22.299Z,7.73
2023-02-21T01:44:48.225Z,7.93
2023-02-21T01:47:52.046Z,7.90
2023-02-21T01:50:56.008Z,7.84
2023-02-21T01:53:59.891Z,7.99
2023-02-21T01:57:04.312Z,7.94
2023-02-21T02:00:10.242Z,8.04
2023-02-21T02:03:23.429Z,8.05
2023-02-21T02:06:31.448Z,7.99
2023-02-21T02:09:40.613Z,8.07
2023-02-21T02:12:45.550Z,8.03
2023-02-21T02:15:52.164Z,7.94
2023-02-21T02:18:55.690Z,8.11
2023-02-21T02:22:05.025Z,8.11
2023-02-21T02:25:06.315Z,8.07
2023-02-21T02:28:00.759Z,8.02
2023-02-21T02:31:01.504Z,8.01
2023-02-21T02:34:03.697Z,8.03
2023-02-21T02:37:04.487Z,8.05
2023-02-21T02:40:04.367Z,8.09
2023-02-21T02:43:03.429Z,7.99
2023-02-21T02:45:54.163Z,8.11
2023-02-21T02:48:53.417Z,8.09
2023-02-21T02:51:38.595Z,7.98
2023-02-21T02:54:23.597Z,8.11
2023-02-21T02:57:13.038Z,8.07
2023-02-21T02:59:58.900Z,8.06
2023-02-21T03:03:31.693Z,8.06
2023-02-21T03:06:30.514Z,8.04
2023-02-21T03:09:29.378Z,8.04
2023-02-21T03:12:37.575Z,8.06
2023-02-21T03:15:33.771Z,8.03
2023-02-21T03:18:24.092Z,8.03
2023-02-21T03:21:17.545Z,8.00
2023-02-21T03:24:05.904Z,8.07
2023-02-21T03:26:54.436Z,8.12
2023-02-21T03:29:41.974Z,8.15
2023-02-21T03:32:38.790Z,8.05
2023-02-21T03:35:24.106Z,8.15
2023-02-21T03:38:10.674Z,8.16
2023-02-21T03:40:56.067Z,8.16
2023-02-21T03:43:41.298Z,8.15
2023-02-21T03:46:26.728Z,8.04
2023-02-21T03:49:11.925Z,8.07
2023-02-21T03:51:56.812Z,8.00
2023-02-21T03:54:42.981Z,8.22
2023-02-21T03:57:28.238Z,8.23
2023-02-21T04:00:14.440Z,8.23
2023-02-21T04:02:59.403Z,8.22
2023-02-21T04:05:44.504Z,8.11
2023-02-21T04:08:29.532Z,8.19
2023-02-21T04:11:18.610Z,8.21
2023-02-21T04:14:04.493Z,8.01
2023-02-21T04:16:49.592Z,8.21
2023-02-21T04:19:34.997Z,8.21
2023-02-21T04:22:20.465Z,8.22
2023-02-21T04:25:06.232Z,8.22
2023-02-21T04:27:51.166Z,8.19
2023-02-21T04:30:36.312Z,8.23
2023-02-21T04:33:21.480Z,8.18
2023-02-21T04:36:06.841Z,8.24
2023-02-21T04:38:51.859Z,8.25
2023-02-21T04:41:37.084Z,8.25
2023-02-21T04:44:22.244Z,8.26
2023-02-21T04:47:07.389Z,8.24
2023-02-21T04:49:53.478Z,8.21
2023-02-21T04:52:41.031Z,8.21
2023-02-21T04:55:26.294Z,8.21
2023-02-21T04:58:11.473Z,8.14
2023-02-21T05:00:56.877Z,8.24
2023-02-21T05:03:42.328Z,8.27
2023-02-21T05:06:29.689Z,8.26
2023-02-21T05:09:14.580Z,8.23
2023-02-21T05:12:00.980Z,8.23
2023-02-21T05:14:46.225Z,8.23
2023-02-21T05:17:31.705Z,8.22
2023-02-21T05:20:16.929Z,8.24
2023-02-21T05:23:13.030Z,8.25
2023-02-21T05:25:59.825Z,8.28
2023-02-21T05:28:44.955Z,8.24
2023-02-21T05:31:31.157Z,8.10
2023-02-21T05:34:17.834Z,8.28
2023-02-21T05:37:02.958Z,8.25
2023-02-21T05:39:49.273Z,8.26
2023-02-21T05:42:34.770Z,8.22
2023-02-21T05:45:19.842Z,8.30
2023-02-21T05:48:05.421Z,8.28
2023-02-21T05:50:50.397Z,8.17
2023-02-21T05:53:35.201Z,8.20
2023-02-21T05:56:21.576Z,8.30
2023-02-21T05:59:06.850Z,8.32
2023-02-21T06:01:51.960Z,8.32
2023-02-21T06:04:37.097Z,8.27
2023-02-21T06:07:22.136Z,8.26
2023-02-21T06:10:07.743Z,8.19
2023-02-21T06:12:55.794Z,8.22
2023-02-21T06:15:40.779Z,8.20
2023-02-21T06:18:25.746Z,8.21
2023-02-21T06:21:10.652Z,8.25
2023-02-21T06:23:55.920Z,8.28
2023-02-21T06:26:45.028Z,8.28
2023-02-21T06:29:30.014Z,8.22
2023-02-21T06:32:15.643Z,8.24
2023-02-21T06:35:00.785Z,8.02
2023-02-21T06:37:46.169Z,8.20
2023-02-21T06:40:31.261Z,8.22
2023-02-21T06:43:16.681Z,8.10
2023-02-21T06:46:02.856Z,8.20
2023-02-21T06:48:48.204Z,8.14
2023-02-21T06:51:39.070Z,8.10
2023-02-21T06:54:25.153Z,8.10
2023-02-21T06:57:10.309Z,8.12
2023-02-21T06:59:55.203Z,8.17
2023-02-21T07:02:40.386Z,8.06
2023-02-21T07:05:25.467Z,8.17
2023-02-21T07:08:10.756Z,8.19
2023-02-21T07:10:55.623Z,8.11
2023-02-21T07:13:41.381Z,8.15
2023-02-21T07:16:26.819Z,8.01
2023-02-21T07:22:01.534Z,8.16
2023-02-21T07:24:46.425Z,8.18
2023-02-21T07:27:31.918Z,8.05
2023-02-21T07:30:17.627Z,8.16
2023-02-21T07:33:02.789Z,8.01
2023-02-21T07:35:48.117Z,8.20
2023-02-21T07:38:33.387Z,8.22
2023-02-21T07:41:18.629Z,8.22
2023-02-21T07:44:03.946Z,8.22
2023-02-21T07:46:49.115Z,8.22
2023-02-21T07:49:38.499Z,8.27
2023-02-21T07:52:23.547Z,8.25
2023-02-21T07:55:09.021Z,8.29
2023-02-21T07:57:54.317Z,8.28
2023-02-21T08:00:40.500Z,8.23
2023-02-21T08:03:26.051Z,8.10
2023-02-21T08:06:11.450Z,8.24
2023-02-21T08:08:56.674Z,8.25
2023-02-21T08:11:42.049Z,8.28
2023-02-21T08:14:28.145Z,8.21
2023-02-21T08:17:14.184Z,8.34
2023-02-21T08:19:59.152Z,8.42
2023-02-21T08:22:44.540Z,8.44
2023-02-21T08:25:29.653Z,8.47
2023-02-21T08:28:15.609Z,8.52
2023-02-21T08:31:00.653Z,8.39
2023-02-21T08:33:45.862Z,8.53
2023-02-21T08:36:32.489Z,8.64
2023-02-21T08:39:17.793Z,8.54
2023-02-21T08:42:03.019Z,8.46
2023-02-21T08:44:48.314Z,8.59
2023-02-21T08:47:37.702Z,8.63
2023-02-21T08:50:25.373Z,8.70
2023-02-21T08:53:15.411Z,8.60
2023-02-21T08:56:00.747Z,8.70
2023-02-21T08:58:45.585Z,8.72
2023-02-21T09:01:34.179Z,8.65
2023-02-21T09:04:19.307Z,8.51
2023-02-21T09:07:04.346Z,8.55
2023-02-21T09:09:49.345Z,8.53
2023-02-21T09:12:34.632Z,8.57
2023-02-21T09:15:19.933Z,8.60
2023-02-21T09:18:06.848Z,8.56
2023-02-21T09:20:53.874Z,8.60
2023-02-21T09:23:38.854Z,8.62
2023-02-21T09:26:24.146Z,8.62
2023-02-21T09:29:12.252Z,8.67
2023-02-21T09:31:57.994Z,8.64
2023-02-21T09:34:43.577Z,8.65
2023-02-21T09:37:28.969Z,8.59
2023-02-21T09:40:20.190Z,8.60
2023-02-21T09:43:11.847Z,8.64
2023-02-21T09:46:00.785Z,8.70
2023-02-21T09:48:46.152Z,8.64
2023-02-21T09:51:33.630Z,8.71
2023-02-21T09:54:28.282Z,8.53
2023-02-21T09:57:15.641Z,8.74
2023-02-21T10:00:00.875Z,8.93
2023-02-21T10:03:31.613Z,8.90
2023-02-21T10:06:40.854Z,8.80
2023-02-21T10:10:07.681Z,8.75
2023-02-21T10:13:17.351Z,8.90
2023-02-21T10:16:12.692Z,8.90
2023-02-21T10:19:43.748Z,9.05
2023-02-21T10:22:34.417Z,9.10
2023-02-21T10:25:43.724Z,9.12
2023-02-21T10:28:28.971Z,9.09
2023-02-21T10:31:24.283Z,9.14
2023-02-21T10:34:23.003Z,9.07
2023-02-21T10:37:23.465Z,9.04
2023-02-21T10:40:31.136Z,9.08
2023-02-21T10:43:21.137Z,9.14
2023-02-21T10:46:25.587Z,9.12
2023-02-21T10:49:30.967Z,9.05
2023-02-21T10:52:18.572Z,9.11
2023-02-21T10:55:32.217Z,9.20
2023-02-21T10:58:27.825Z,9.17
2023-02-21T11:01:18.030Z,9.16
2023-02-21T11:04:34.501Z,9.23
2023-02-21T11:07:21.595Z,9.18
2023-02-21T11:10:32.144Z,9.25
2023-02-21T11:13:21.898Z,9.22
2023-02-21T11:16:17.064Z,9.22
2023-02-21T11:19:07.716Z,9.20
2023-02-21T11:21:56.918Z,9.20
2023-02-21T11:25:18.051Z,9.26
2023-02-21T11:28:09.464Z,9.19
2023-02-21T11:31:22.274Z,9.29
2023-02-21T11:34:10.183Z,9.19
2023-02-21T11:37:03.450Z,9.26
2023-02-21T11:39:52.260Z,9.22
2023-02-21T11:42:37.797Z,9.19
2023-02-21T11:45:30.546Z,9.42
2023-02-21T11:48:18.648Z,9.43
2023-02-21T11:51:07.534Z,9.36
2023-02-21T11:53:53.271Z,9.32
2023-02-21T11:56:52.116Z,9.24
2023-02-21T11:59:52.618Z,9.28
2023-02-21T12:02:59.427Z,9.41
2023-02-21T12:05:58.160Z,9.38
2023-02-21T12:08:56.754Z,9.34
2023-02-21T12:12:14.445Z,9.38
2023-02-21T12:15:22.075Z,9.32
2023-02-21T12:18:17.997Z,9.35
2023-02-21T12:21:22.417Z,9.50
2023-02-21T12:24:30.847Z,9.46
2023-02-21T12:27:24.930Z,9.52
2023-02-21T12:30:30.920Z,9.56
2023-02-21T12:33:41.218Z,9.55
2023-02-21T12:36:45.270Z,9.56
2023-02-21T12:39:49.428Z,9.65
2023-02-21T12:42:53.000Z,9.65
2023-02-21T12:45:55.021Z,9.54
2023-02-21T12:48:54.530Z,9.62
2023-02-21T12:51:46.265Z,9.82
2023-02-21T12:55:12.523Z,9.69
2023-02-21T12:58:11.721Z,9.64
2023-02-21T13:01:22.165Z,9.72
2023-02-21T13:04:28.265Z,9.66
2023-02-21T13:07:25.983Z,9.54
2023-02-21T13:10:24.453Z,9.50
2023-02-21T13:13:19.206Z,9.47
2023-02-21T13:16:10.587Z,9.41
2023-02-21T13:19:00.635Z,9.57
2023-02-21T13:22:00.884Z,9.32
2023-02-21T13:25:01.291Z,9.49
2023-02-21T13:28:05.895Z,9.55
2023-02-21T13:30:52.841Z,9.54
2023-02-21T13:33:54.757Z,9.57
2023-02-21T13:36:39.920Z,9.67
2023-02-21T13:39:36.512Z,9.57
2023-02-21T13:42:25.106Z,9.69
2023-02-21T13:45:22.300Z,9.66
2023-02-21T13:48:07.658Z,9.71
2023-02-21T13:50:54.788Z,9.81
2023-02-21T13:54:23.117Z,9.95
2023-02-21T13:57:34.931Z,9.98
2023-02-21T14:00:26.693Z,10.01
2023-02-21T14:03:18.102Z,9.90
2023-02-21T14:06:09.178Z,10.03
2023-02-21T14:09:05.978Z,9.97
2023-02-21T14:11:54.152Z,9.95
2023-02-21T14:14:39.911Z,9.84
2023-02-21T14:17:29.333Z,9.97
2023-02-21T14:20:16.984Z,9.96
2023-02-21T14:23:04.363Z,9.94
2023-02-21T14:26:04.132Z,9.96
2023-02-21T14:28:58.285Z,10.02
2023-02-21T14:32:04.624Z,10.12
2023-02-21T14:34:55.051Z,10.07
2023-02-21T14:37:45.224Z,9.96
2023-02-21T14:40:33.417Z,9.93
2023-02-21T14:43:37.974Z,9.94
2023-02-21T14:46:35.876Z,10.05
2023-02-21T14:49:42.278Z,9.98
2023-02-21T14:52:30.380Z,10.06
2023-02-21T14:55:15.344Z,10.01
2023-02-21T14:58:18.673Z,9.97
2023-02-21T15:01:45.942Z,10.05
2023-02-21T15:04:39.360Z,9.93
2023-02-21T15:07:41.121Z,9.99
2023-02-21T15:10:31.653Z,10.09
2023-02-21T15:13:24.116Z,10.11
2023-02-21T15:16:13.106Z,10.10
2023-02-21T15:19:00.871Z,10.12
2023-02-21T15:21:46.134Z,9.95
2023-02-21T15:24:31.796Z,10.11
2023-02-21T15:27:16.625Z,11.09
2023-02-21T15:30:15.122Z,11.33
2023-02-21T15:33:19.154Z,10.73
2023-02-21T15:36:14.696Z,10.48
2023-02-21T15:38:59.640Z,10.48
2023-02-21T15:41:50.840Z,10.45
2023-02-21T15:44:45.732Z,10.36
2023-02-21T15:47:34.552Z,10.40
2023-02-21T15:50:33.965Z,10.29
2023-02-21T15:53:22.195Z,10.02
2023-02-21T15:56:23.633Z,10.04
2023-02-21T15:59:15.775Z,10.02
2023-02-21T16:02:27.245Z,10.00
2023-02-21T16:05:26.716Z,9.96
2023-02-21T16:08:14.727Z,9.96
2023-02-21T16:11:04.324Z,9.92
2023-02-21T16:13:49.790Z,9.93
2023-02-21T16:16:35.852Z,10.00
2023-02-21T16:19:23.395Z,10.10
2023-02-21T16:22:59.287Z,10.02
2023-02-21T16:25:56.615Z,9.94
2023-02-21T16:28:42.481Z,9.87
2023-02-21T16:31:33.666Z,9.79
2023-02-21T16:34:18.889Z,9.76
2023-02-21T16:37:09.946Z,9.77
2023-02-21T16:39:55.258Z,9.61
2023-02-21T16:42:40.632Z,9.70
2023-02-21T16:45:25.942Z,9.68
2023-02-21T16:48:17.870Z,9.65
2023-02-21T16:51:07.309Z,9.50
2023-02-21T16:53:52.225Z,9.43
2023-02-21T16:56:39.961Z,9.39
2023-02-21T16:59:25.491Z,9.28
2023-02-21T17:02:14.594Z,9.25
2023-02-21T17:05:00.286Z,9.20
2023-02-21T17:07:45.578Z,9.02
2023-02-21T17:10:32.699Z,9.05
2023-02-21T17:13:17.853Z,8.96
2023-02-21T17:16:03.392Z,9.03
2023-02-21T17:18:48.989Z,9.09
2023-02-21T17:21:33.860Z,9.19
2023-02-21T17:24:18.995Z,9.00
2023-02-21T17:27:04.204Z,8.80
2023-02-21T17:29:49.576Z,8.64
2023-02-21T17:32:35.089Z,8.68
2023-02-21T17:35:22.526Z,8.62
2023-02-21T17:38:07.819Z,8.71
2023-02-21T17:40:53.605Z,8.67
2023-02-21T17:43:39.077Z,8.48
2023-02-21T17:46:24.786Z,8.57
2023-02-21T17:49:09.967Z,8.24
2023-02-21T17:51:55.436Z,8.33
2023-02-21T17:54:41.085Z,8.23
2023-02-21T17:57:26.540Z,8.23
2023-02-21T18:00:21.178Z,8.14
2023-02-21T18:03:07.559Z,8.16
2023-02-21T18:05:52.789Z,8.04
2023-02-21T18:08:37.963Z,7.97
2023-02-21T18:11:24.760Z,8.05
2023-02-21T18:14:09.699Z,7.97
2023-02-21T18:16:56.395Z,7.90
2023-02-21T18:19:41.615Z,7.82
2023-02-21T18:22:26.565Z,7.74
2023-02-21T18:25:14.429Z,7.74
2023-02-21T18:27:59.982Z,7.64
2023-02-21T18:30:45.340Z,7.74
2023-02-21T18:33:31.606Z,7.67
2023-02-21T18:36:16.817Z,7.61
2023-02-21T18:39:02.151Z,7.79
2023-02-21T18:41:48.021Z,7.99
2023-02-21T18:44:33.883Z,7.88
2023-02-21T18:47:19.845Z,7.70
2023-02-21T18:50:06.072Z,7.67
2023-02-21T18:52:51.138Z,7.50
2023-02-21T18:55:36.382Z,7.39
2023-02-21T18:58:21.385Z,7.15
2023-02-21T19:01:07.407Z,7.12
2023-02-21T19:03:54.123Z,7.04
2023-02-21T19:06:39.389Z,7.09
2023-02-21T19:09:24.842Z,7.07
2023-02-21T19:12:10.146Z,7.03
2023-02-21T19:14:55.818Z,6.96
2023-02-21T19:17:42.846Z,6.94
2023-02-21T19:20:27.938Z,6.91
2023-02-21T19:23:15.838Z,6.82
2023-02-21T19:26:01.070Z,6.70
2023-02-21T19:28:47.766Z,6.83
2023-02-21T19:31:33.079Z,6.77
2023-02-21T19:34:18.320Z,6.78
2023-02-21T19:37:03.426Z,6.74
2023-02-21T19:39:48.692Z,6.75
2023-02-21T19:42:35.054Z,6.75
2023-02-21T19:45:20.206Z,6.84
2023-02-21T19:48:05.352Z,6.85
2023-02-21T19:50:50.642Z,6.83
2023-02-21T19:53:37.019Z,6.85
2023-02-21T19:56:22.300Z,6.82
2023-02-21T19:59:07.980Z,6.85
2023-02-21T20:01:54.188Z,6.74
2023-02-21T20:04:41.380Z,6.79
2023-02-21T20:07:27.640Z,6.78
2023-02-21T20:10:13.801Z,6.74
2023-02-21T20:12:58.705Z,6.71
2023-02-21T20:15:44.996Z,6.71
2023-02-21T20:18:29.988Z,6.66
2023-02-21T20:21:28.038Z,6.76
2023-02-21T20:24:13.388Z,6.75
2023-02-21T20:26:58.589Z,6.72
2023-02-21T20:29:43.855Z,6.73
2023-02-21T20:32:28.922Z,6.73
2023-02-21T20:35:14.284Z,6.74
2023-02-21T20:38:05.398Z,6.71
2023-02-21T20:40:50.617Z,6.70
2023-02-21T20:43:36.438Z,6.66
2023-02-21T20:46:22.871Z,6.68
2023-02-21T20:49:07.979Z,6.69
2023-02-21T20:51:54.313Z,6.69
2023-02-21T20:54:40.273Z,6.73
2023-02-21T20:57:25.170Z,6.74
2023-02-21T21:00:12.712Z,6.66
2023-02-21T21:02:59.320Z,6.57
2023-02-21T21:05:45.080Z,6.57
2023-02-21T21:08:30.315Z,6.61
2023-02-21T21:11:16.224Z,6.62
2023-02-21T21:14:02.850Z,6.48
2023-02-21T21:16:47.810Z,6.53
2023-02-21T21:19:34.495Z,6.51
2023-02-21T21:22:22.777Z,6.49
2023-02-21T21:25:08.855Z,6.34
2023-02-21T21:27:53.827Z,6.24
2023-02-21T21:30:40.459Z,6.21
2023-02-21T21:33:27.185Z,6.22
2023-02-21T21:36:12.339Z,6.18
2023-02-21T21:38:57.318Z,6.05
2023-02-21T21:41:46.527Z,5.89
2023-02-21T21:44:32.767Z,5.73
2023-02-21T21:47:26.594Z,5.72
2023-02-21T21:50:11.973Z,5.70
2023-02-21T21:52:58.513Z,5.74
2023-02-21T21:55:43.728Z,5.68
2023-02-21T21:58:28.894Z,5.68
2023-02-21T22:01:15.457Z,5.63
2023-02-21T22:04:01.119Z,5.57
2023-02-21T22:06:47.208Z,5.57
2023-02-21T22:09:32.096Z,5.64
2023-02-21T22:12:18.103Z,5.63
2023-02-21T22:15:03.274Z,5.62
2023-02-21T22:17:49.197Z,5.61
2023-02-21T22:20:36.068Z,5.48
2023-02-21T22:23:21.773Z,5.55
2023-02-21T22:26:07.471Z,5.35
2023-02-21T22:28:52.693Z,5.45
2023-02-21T22:31:38.136Z,5.42
2023-02-21T22:34:23.472Z,5.39
2023-02-21T22:37:10.232Z,5.40
2023-02-21T22:39:55.499Z,5.41
2023-02-21T22:42:40.427Z,5.48
2023-02-21T22:45:26.388Z,5.52
2023-02-21T22:48:11.563Z,5.55
2023-02-21T22:50:56.946Z,5.54
2023-02-21T22:53:43.545Z,5.36
2023-02-21T22:56:29.915Z,5.18
2023-02-21T22:59:15.123Z,5.31
2023-02-21T23:02:00.427Z,5.33
2023-02-21T23:04:46.608Z,5.02
2023-02-21T23:07:31.926Z,5.13
2023-02-21T23:10:19.623Z,4.92
2023-02-21T23:13:04.871Z,5.07
2023-02-21T23:15:51.552Z,4.99
2023-02-21T23:18:36.872Z,5.01
2023-02-21T23:21:23.061Z,5.01
2023-02-21T23:24:11.396Z,4.94
2023-02-21T23:26:56.600Z,4.92
2023-02-21T23:29:41.471Z,4.95
2023-02-21T23:32:26.511Z,4.98
2023-02-21T23:35:16.126Z,4.97
2023-02-21T23:38:02.513Z,4.97
2023-02-21T23:40:56.295Z,4.97
2023-02-21T23:43:41.639Z,4.97
2023-02-21T23:46:29.200Z,4.93
2023-02-21T23:49:16.035Z,4.95
2023-02-21T23:52:01.964Z,4.96
2023-02-21T23:54:47.427Z,4.98
2023-02-21T23:57:32.432Z,5.01
